createdAt,value
2022-10-03T00:01:54.765Z,4.97
2022-10-03T00:04:27.576Z,2.10
2022-10-03T00:07:13.240Z,1.95
2022-10-03T00:09:47.268Z,2.10
2022-10-03T00:12:37.081Z,3.00
2022-10-03T00:15:06.131Z,2.42
2022-10-03T00:17:52.731Z,1.30
2022-10-03T00:20:19.392Z,1.52
2022-10-03T00:23:00.116Z,1.23
2022-10-03T00:25:41.766Z,1.15
2022-10-03T00:28:36.052Z,1.30
2022-10-03T00:31:14.251Z,1.20
2022-10-03T00:33:56.085Z,1.17
2022-10-03T00:36:35.435Z,1.45
2022-10-03T00:39:11.034Z,1.80
2022-10-03T00:41:44.089Z,1.50
2022-10-03T00:44:29.289Z,1.30
2022-10-03T00:47:01.582Z,1.83
2022-10-03T00:50:02.504Z,1.30
2022-10-03T00:52:38.011Z,1.08
2022-10-03T00:55:26.375Z,1.10
2022-10-03T00:58:11.713Z,1.20
2022-10-03T01:00:42.506Z,1.15
2022-10-03T01:03:36.452Z,1.60
2022-10-03T01:06:14.900Z,1.23
2022-10-03T01:09:06.944Z,1.20
2022-10-03T01:11:51.799Z,1.48
2022-10-03T01:14:56.458Z,1.40
2022-10-03T01:17:50.752Z,1.02
2022-10-03T01:20:32.957Z,1.70
2022-10-03T01:23:28.591Z,1.20
2022-10-03T01:26:22.771Z,1.20
2022-10-03T01:29:21.844Z,1.33
2022-10-03T01:32:04.739Z,1.48
2022-10-03T01:34:51.815Z,1.10
2022-10-03T01:37:57.358Z,1.88
2022-10-03T01:40:43.152Z,1.00
2022-10-03T01:43:19.723Z,1.50
2022-10-03T01:46:07.263Z,1.30
2022-10-03T01:49:13.106Z,1.23
2022-10-03T01:52:05.876Z,1.15
2022-10-03T01:55:04.451Z,1.27
2022-10-03T01:57:53.636Z,1.40
2022-10-03T02:00:27.979Z,1.15
2022-10-03T02:03:31.001Z,1.10
2022-10-03T02:06:11.157Z,1.20
2022-10-03T02:08:40.726Z,1.88
2022-10-03T02:11:09.944Z,1.13
2022-10-03T02:13:58.850Z,1.83
2022-10-03T02:16:34.520Z,1.67
2022-10-03T02:19:29.757Z,1.95
2022-10-03T02:22:01.988Z,1.60
2022-10-03T02:24:37.434Z,2.53
2022-10-03T02:27:37.863Z,2.10
2022-10-03T02:30:04.318Z,2.08
2022-10-03T02:33:18.913Z,1.63
2022-10-03T02:36:06.967Z,2.00
2022-10-03T02:38:42.463Z,2.58
2022-10-03T02:41:28.040Z,3.20
2022-10-03T02:44:06.993Z,2.42
2022-10-03T02:47:05.325Z,2.03
2022-10-03T02:50:25.733Z,2.50
2022-10-03T02:53:12.473Z,3.05
2022-10-03T02:55:58.029Z,2.10
2022-10-03T02:59:06.789Z,2.53
2022-10-03T03:02:01.952Z,2.33
2022-10-03T03:05:22.406Z,2.50
2022-10-03T03:08:13.144Z,2.88
2022-10-03T03:11:17.175Z,2.88
2022-10-03T03:13:49.516Z,2.40
2022-10-03T03:17:01.826Z,2.88
2022-10-03T03:19:39.480Z,3.28
2022-10-03T03:22:25.914Z,2.60
2022-10-03T03:25:14.192Z,2.90
2022-10-03T03:27:51.926Z,3.83
2022-10-03T03:30:25.624Z,4.32
2022-10-03T03:33:11.139Z,2.55
2022-10-03T03:35:49.730Z,2.75
2022-10-03T03:38:16.215Z,3.10
2022-10-03T03:40:56.496Z,2.47
2022-10-03T03:43:47.379Z,2.38
2022-10-03T03:46:29.881Z,2.50
2022-10-03T03:49:09.233Z,3.17
2022-10-03T03:51:50.692Z,2.90
2022-10-03T03:54:34.749Z,3.05
2022-10-03T03:57:34.947Z,3.78
2022-10-03T04:00:17.824Z,4.45
2022-10-03T04:03:13.564Z,4.18
2022-10-03T04:05:50.108Z,2.78
2022-10-03T04:08:34.873Z,3.40
2022-10-03T04:11:18.554Z,3.45
2022-10-03T04:14:11.131Z,3.03
2022-10-03T04:17:14.753Z,3.15
2022-10-03T04:19:59.290Z,2.60
2022-10-03T04:22:58.562Z,2.92
2022-10-03T04:26:02.451Z,2.75
2022-10-03T04:29:06.196Z,2.75
2022-10-03T04:31:57.228Z,5.05
2022-10-03T04:34:32.456Z,2.78
2022-10-03T04:37:18.004Z,2.80
2022-10-03T04:40:11.759Z,2.35
2022-10-03T04:43:19.222Z,1.70
2022-10-03T04:45:45.912Z,1.75
2022-10-03T04:48:43.279Z,1.42
2022-10-03T04:51:16.083Z,1.45
2022-10-03T04:54:02.279Z,1.15
2022-10-03T04:56:45.985Z,1.60
2022-10-03T04:59:40.011Z,2.55
2022-10-03T05:02:40.864Z,1.30
2022-10-03T05:05:26.085Z,1.25
2022-10-03T05:08:07.072Z,1.45
2022-10-03T05:10:39.804Z,1.42
2022-10-03T05:13:39.499Z,1.45
2022-10-03T05:16:16.390Z,1.42
2022-10-03T05:18:45.787Z,1.40
2022-10-03T05:21:21.340Z,1.65
2022-10-03T05:23:48.418Z,1.35
2022-10-03T05:26:47.831Z,1.70
2022-10-03T05:29:25.321Z,1.30
2022-10-03T05:32:37.772Z,1.40
2022-10-03T05:35:18.103Z,1.35
2022-10-03T05:37:51.891Z,1.10
2022-10-03T05:40:25.623Z,1.83
2022-10-03T05:42:56.020Z,1.15
2022-10-03T05:45:47.252Z,1.75
2022-10-03T05:48:29.077Z,1.75
2022-10-03T05:51:37.764Z,1.58
2022-10-03T05:54:22.768Z,1.85
2022-10-03T05:57:01.185Z,1.77
2022-10-03T05:59:51.780Z,1.70
2022-10-03T06:02:20.987Z,3.25
2022-10-03T06:04:53.719Z,2.10
2022-10-03T06:07:29.627Z,2.53
2022-10-03T06:10:04.475Z,1.70
2022-10-03T06:12:44.028Z,1.73
2022-10-03T06:15:39.573Z,1.85
2022-10-03T06:18:33.717Z,2.63
2022-10-03T06:21:39.173Z,2.45
2022-10-03T06:24:20.317Z,1.70
2022-10-03T06:26:52.470Z,1.52
2022-10-03T06:29:39.960Z,2.38
2022-10-03T06:32:09.100Z,3.53
2022-10-03T06:35:25.600Z,1.58
2022-10-03T06:38:26.870Z,2.03
2022-10-03T06:41:27.007Z,1.00
2022-10-03T06:44:07.809Z,1.17
2022-10-03T06:46:49.339Z,1.30
2022-10-03T06:49:43.873Z,2.03
2022-10-03T06:52:45.830Z,2.40
2022-10-03T06:55:24.181Z,2.40
2022-10-03T06:58:12.289Z,2.20
2022-10-03T07:00:51.085Z,2.10
2022-10-03T07:03:39.482Z,2.00
2022-10-03T07:06:24.663Z,1.88
2022-10-03T07:09:30.153Z,2.42
2022-10-03T07:12:10.903Z,2.25
2022-10-03T07:15:01.893Z,2.15
2022-10-03T07:18:12.486Z,1.60
2022-10-03T07:21:06.838Z,1.35
2022-10-03T07:23:45.677Z,1.13
2022-10-03T07:26:40.592Z,1.25
2022-10-03T07:29:17.408Z,1.67
2022-10-03T07:32:11.421Z,1.50
2022-10-03T07:34:58.417Z,1.70
2022-10-03T07:38:08.450Z,1.08
2022-10-03T07:41:16.369Z,1.55
2022-10-03T07:43:58.105Z,2.05
2022-10-03T07:46:51.020Z,2.08
2022-10-03T07:49:23.740Z,2.13
2022-10-03T07:52:00.900Z,1.95
2022-10-03T07:54:58.175Z,4.70
2022-10-03T07:57:55.397Z,4.30
2022-10-03T08:00:42.917Z,4.57
2022-10-03T08:03:22.492Z,3.10
2022-10-03T08:05:56.203Z,3.15
2022-10-03T08:08:55.624Z,6.22
2022-10-03T08:11:49.698Z,8.38
2022-10-03T08:14:23.121Z,5.57
2022-10-03T08:17:23.623Z,4.50
2022-10-03T08:20:12.406Z,4.53
2022-10-03T08:22:38.898Z,5.00
2022-10-03T08:25:18.009Z,5.57
2022-10-03T08:27:59.951Z,5.63
2022-10-03T08:30:37.868Z,4.30
2022-10-03T08:33:26.572Z,6.20
2022-10-03T08:36:06.997Z,4.78
2022-10-03T08:38:57.910Z,5.20
2022-10-03T08:41:57.316Z,4.70
2022-10-03T08:44:52.374Z,4.20
2022-10-03T08:47:41.335Z,4.00
2022-10-03T08:50:49.157Z,4.30
2022-10-03T08:53:48.999Z,5.10
2022-10-03T08:56:22.825Z,4.13
2022-10-03T08:59:01.397Z,6.47
2022-10-03T09:01:58.376Z,4.75
2022-10-03T09:04:49.732Z,4.53
2022-10-03T09:07:43.972Z,5.25
2022-10-03T09:10:32.497Z,4.93
2022-10-03T09:13:07.396Z,4.97
2022-10-03T09:16:16.204Z,4.72
2022-10-03T09:18:54.138Z,4.60
2022-10-03T09:21:38.768Z,4.70
2022-10-03T09:24:23.637Z,5.80
2022-10-03T09:26:50.073Z,4.95
2022-10-03T09:29:47.195Z,4.88
2022-10-03T09:33:01.839Z,4.90
2022-10-03T09:35:37.449Z,5.03
2022-10-03T09:38:41.599Z,4.05
2022-10-03T09:41:39.214Z,4.43
2022-10-03T09:44:24.195Z,5.13
2022-10-03T09:47:23.331Z,4.68
2022-10-03T09:50:21.178Z,4.75
2022-10-03T09:53:19.659Z,5.80
2022-10-03T09:56:16.207Z,4.32
2022-10-03T09:58:57.654Z,4.00
2022-10-03T10:01:31.162Z,3.70
2022-10-03T10:04:53.240Z,3.50
2022-10-03T10:07:52.207Z,3.60
2022-10-03T10:10:31.128Z,3.70
2022-10-03T10:13:56.123Z,3.45
2022-10-03T10:16:47.919Z,3.47
2022-10-03T10:19:45.331Z,3.20
2022-10-03T10:22:24.819Z,4.00
2022-10-03T10:25:32.789Z,3.78
2022-10-03T10:28:44.291Z,4.10
2022-10-03T10:31:30.152Z,3.30
2022-10-03T10:34:33.898Z,3.10
2022-10-03T10:37:12.527Z,3.45
2022-10-03T10:40:03.902Z,3.30
2022-10-03T10:42:42.812Z,3.50
2022-10-03T10:45:45.603Z,3.22
2022-10-03T10:48:33.054Z,2.95
2022-10-03T10:51:37.356Z,3.15
2022-10-03T10:54:17.552Z,2.78
2022-10-03T10:57:22.963Z,3.08
2022-10-03T11:00:20.467Z,2.90
2022-10-03T11:03:17.727Z,2.70
2022-10-03T11:05:51.325Z,2.97
2022-10-03T11:08:55.203Z,3.00
2022-10-03T11:12:16.144Z,2.90
2022-10-03T11:15:33.067Z,3.20
2022-10-03T11:18:15.616Z,3.95
2022-10-03T11:21:24.543Z,2.95
2022-10-03T11:24:09.564Z,3.00
2022-10-03T11:26:57.235Z,3.05
2022-10-03T11:29:42.652Z,3.35
2022-10-03T11:32:38.709Z,2.90
2022-10-03T11:35:43.241Z,3.20
2022-10-03T11:38:30.112Z,2.90
2022-10-03T11:41:26.135Z,3.10
2022-10-03T11:44:12.274Z,2.65
2022-10-03T11:46:42.847Z,3.30
2022-10-03T11:49:58.115Z,2.83
2022-10-03T11:52:38.867Z,2.70
2022-10-03T11:55:31.297Z,2.65
2022-10-03T11:58:03.698Z,2.60
2022-10-03T12:00:36.181Z,3.10
2022-10-03T12:03:23.757Z,2.70
2022-10-03T12:06:15.852Z,2.55
2022-10-03T12:08:56.978Z,2.97
2022-10-03T12:11:59.003Z,2.70
2022-10-03T12:14:32.405Z,2.90
2022-10-03T12:17:02.700Z,2.75
2022-10-03T12:20:03.883Z,3.33
2022-10-03T12:22:51.886Z,2.40
2022-10-03T12:25:21.637Z,2.60
2022-10-03T12:27:57.487Z,2.50
2022-10-03T12:30:25.662Z,2.40
2022-10-03T12:33:14.593Z,2.40
2022-10-03T12:35:47.521Z,2.85
2022-10-03T12:38:39.658Z,2.40
2022-10-03T12:41:40.006Z,2.20
2022-10-03T12:44:20.848Z,2.33
2022-10-03T12:47:10.827Z,2.35
2022-10-03T12:49:51.497Z,2.40
2022-10-03T12:52:29.162Z,2.20
2022-10-03T12:55:30.075Z,2.92
2022-10-03T12:58:35.192Z,2.50
2022-10-03T13:01:18.036Z,2.50
2022-10-03T13:04:12.517Z,2.42
2022-10-03T13:07:04.353Z,2.38
2022-10-03T13:10:10.431Z,2.90
2022-10-03T13:12:58.678Z,2.60
2022-10-03T13:15:47.427Z,2.90
2022-10-03T13:18:18.490Z,2.67
2022-10-03T13:21:44.848Z,2.20
2022-10-03T13:24:11.921Z,2.00
2022-10-03T13:26:50.683Z,2.25
2022-10-03T13:29:20.437Z,2.28
2022-10-03T13:31:49.810Z,2.30
2022-10-03T13:34:21.905Z,2.20
2022-10-03T13:37:13.195Z,2.20
2022-10-03T13:39:51.632Z,2.33
2022-10-03T13:42:53.593Z,2.03
2022-10-03T13:45:26.368Z,1.77
2022-10-03T13:47:59.057Z,2.30
2022-10-03T13:50:38.460Z,2.38
2022-10-03T13:53:12.229Z,2.22
2022-10-03T13:55:46.663Z,2.20
2022-10-03T13:58:23.270Z,2.25
2022-10-03T14:01:11.608Z,2.10
2022-10-03T14:04:06.139Z,3.65
2022-10-03T14:06:41.477Z,1.90
2022-10-03T14:09:35.636Z,2.22
2022-10-03T14:12:54.511Z,2.25
2022-10-03T14:15:53.129Z,2.30
2022-10-03T14:18:37.406Z,2.10
2022-10-03T14:21:22.882Z,2.08
2022-10-03T14:24:08.263Z,2.35
2022-10-03T14:27:01.981Z,1.90
2022-10-03T14:29:53.473Z,2.08
2022-10-03T14:32:46.726Z,2.30
2022-10-03T14:35:34.452Z,2.00
2022-10-03T14:38:15.423Z,2.30
2022-10-03T14:40:50.723Z,2.10
2022-10-03T14:43:30.523Z,2.30
2022-10-03T14:46:00.958Z,2.33
2022-10-03T14:48:41.695Z,2.20
2022-10-03T14:51:29.726Z,2.20
2022-10-03T14:54:02.768Z,2.30
2022-10-03T14:56:34.793Z,2.20
2022-10-03T14:59:12.001Z,2.35
2022-10-03T15:01:49.297Z,2.20
2022-10-03T15:04:43.319Z,2.20
2022-10-03T15:07:15.197Z,2.13
2022-10-03T15:09:47.067Z,2.00
2022-10-03T15:12:23.985Z,2.10
2022-10-03T15:15:11.587Z,2.05
2022-10-03T15:17:47.145Z,2.03
2022-10-03T15:20:18.897Z,2.10
2022-10-03T15:22:53.456Z,2.05
2022-10-03T15:25:26.318Z,2.17
2022-10-03T15:27:55.730Z,2.25
2022-10-03T15:30:31.583Z,2.30
2022-10-03T15:33:37.964Z,2.10
2022-10-03T15:36:38.498Z,2.10
2022-10-03T15:39:16.944Z,2.00
2022-10-03T15:42:07.876Z,2.20
2022-10-03T15:44:41.436Z,2.00
2022-10-03T15:47:19.248Z,2.10
2022-10-03T15:50:07.265Z,2.55
2022-10-03T15:52:40.603Z,2.20
2022-10-03T15:55:13.870Z,2.40
2022-10-03T15:57:52.072Z,2.70
2022-10-03T16:00:27.633Z,2.50
2022-10-03T16:03:23.125Z,2.42
2022-10-03T16:06:27.175Z,2.50
2022-10-03T16:09:06.206Z,2.28
2022-10-03T16:11:51.298Z,2.25
2022-10-03T16:14:31.692Z,2.10
2022-10-03T16:17:13.025Z,2.20
2022-10-03T16:19:43.797Z,2.08
2022-10-03T16:22:43.385Z,2.60
2022-10-03T16:25:28.966Z,2.53
2022-10-03T16:28:03.658Z,2.72
2022-10-03T16:30:54.726Z,2.55
2022-10-03T16:33:25.452Z,3.53
2022-10-03T16:35:56.075Z,3.38
2022-10-03T16:38:53.848Z,3.67
2022-10-03T16:41:35.133Z,2.65
2022-10-03T16:44:18.077Z,2.60
2022-10-03T16:46:46.460Z,2.80
2022-10-03T16:49:43.714Z,2.50
2022-10-03T16:52:18.621Z,2.80
2022-10-03T16:54:47.201Z,2.88
2022-10-03T16:57:21.937Z,3.50
2022-10-03T16:59:53.545Z,3.50
2022-10-03T17:02:30.834Z,3.63
2022-10-03T17:05:07.901Z,3.30
2022-10-03T17:07:42.474Z,3.78
2022-10-03T17:10:41.669Z,3.25
2022-10-03T17:13:16.496Z,3.35
2022-10-03T17:15:48.857Z,3.20
2022-10-03T17:18:25.427Z,3.50
2022-10-03T17:20:56.788Z,3.80
2022-10-03T17:23:30.295Z,3.10
2022-10-03T17:26:03.601Z,3.00
2022-10-03T17:28:38.427Z,3.10
2022-10-03T17:31:20.837Z,2.75
2022-10-03T17:33:53.499Z,2.60
2022-10-03T17:36:38.493Z,3.38
2022-10-03T17:39:17.093Z,3.00
2022-10-03T17:42:01.107Z,2.70
2022-10-03T17:44:59.630Z,2.80
2022-10-03T17:47:58.959Z,2.63
2022-10-03T17:50:30.517Z,2.70
2022-10-03T17:53:00.990Z,2.80
2022-10-03T17:55:37.890Z,3.00
2022-10-03T17:58:09.009Z,2.88
2022-10-03T18:00:45.027Z,2.80
2022-10-03T18:03:20.706Z,2.85
2022-10-03T18:05:52.514Z,2.72
2022-10-03T18:08:26.488Z,2.95
2022-10-03T18:10:55.995Z,2.95
2022-10-03T18:13:31.782Z,2.80
2022-10-03T18:16:17.227Z,3.00
2022-10-03T18:19:08.500Z,2.95
2022-10-03T18:21:39.049Z,2.75
2022-10-03T18:24:43.362Z,2.65
2022-10-03T18:27:20.310Z,3.22
2022-10-03T18:29:54.700Z,2.58
2022-10-03T18:32:24.724Z,3.03
2022-10-03T18:35:15.362Z,2.85
2022-10-03T18:37:44.581Z,3.00
2022-10-03T18:40:14.254Z,2.97
2022-10-03T18:42:41.278Z,1.05
2022-10-03T18:45:24.130Z,1.10
2022-10-03T18:48:12.237Z,1.20
2022-10-03T18:51:15.942Z,1.67
2022-10-03T18:53:52.845Z,2.08
2022-10-03T18:56:24.171Z,4.88
2022-10-03T18:59:21.822Z,1.27
2022-10-03T19:01:53.623Z,1.85
2022-10-03T19:04:26.165Z,3.47
2022-10-03T19:06:55.233Z,4.40
2022-10-03T19:09:29.030Z,3.22
2022-10-03T19:12:22.844Z,2.22
2022-10-03T19:15:04.588Z,1.40
2022-10-03T19:18:01.807Z,1.30
2022-10-03T19:20:41.270Z,3.97
2022-10-03T19:23:12.243Z,2.70
2022-10-03T19:25:41.409Z,1.98
2022-10-03T19:28:18.564Z,2.05
2022-10-03T19:31:00.597Z,1.50
2022-10-03T19:33:29.063Z,1.25
2022-10-03T19:36:02.134Z,1.65
2022-10-03T19:38:34.443Z,1.90
2022-10-03T19:41:13.107Z,1.10
2022-10-03T19:43:47.441Z,1.20
2022-10-03T19:46:52.331Z,1.00
2022-10-03T19:49:33.087Z,1.23
2022-10-03T19:52:20.082Z,1.05
2022-10-03T19:55:01.817Z,0.90
2022-10-03T19:57:37.138Z,0.90
2022-10-03T20:00:33.666Z,0.90
2022-10-03T20:03:12.464Z,1.67
2022-10-03T20:05:49.252Z,1.75
2022-10-03T20:08:49.130Z,1.00
2022-10-03T20:11:38.844Z,0.70
2022-10-03T20:14:06.472Z,1.00
2022-10-03T20:16:40.606Z,1.10
2022-10-03T20:19:15.363Z,1.27
2022-10-03T20:21:42.249Z,1.05
2022-10-03T20:24:21.251Z,1.20
2022-10-03T20:27:08.564Z,1.15
2022-10-03T20:29:47.475Z,1.20
2022-10-03T20:32:19.414Z,0.80
2022-10-03T20:34:53.972Z,0.82
2022-10-03T20:37:47.709Z,0.93
2022-10-03T20:40:24.512Z,1.13
2022-10-03T20:42:53.919Z,1.00
2022-10-03T20:45:28.249Z,0.98
2022-10-03T20:48:06.601Z,1.00
2022-10-03T20:50:48.398Z,0.68
2022-10-03T20:53:27.678Z,0.77
2022-10-03T20:56:03.142Z,0.80
2022-10-03T20:58:31.932Z,1.15
2022-10-03T21:01:08.623Z,1.02
2022-10-03T21:04:03.889Z,1.13
2022-10-03T21:06:52.001Z,1.52
2022-10-03T21:09:21.756Z,1.33
2022-10-03T21:11:54.496Z,1.33
2022-10-03T21:14:27.376Z,1.10
2022-10-03T21:16:55.839Z,1.00
2022-10-03T21:19:34.294Z,1.05
2022-10-03T21:22:04.251Z,1.13
2022-10-03T21:24:36.211Z,1.10
2022-10-03T21:27:10.797Z,1.00
2022-10-03T21:29:38.629Z,1.40
2022-10-03T21:32:17.018Z,0.93
2022-10-03T21:35:05.148Z,1.02
2022-10-03T21:37:53.318Z,1.00
2022-10-03T21:40:25.890Z,1.17
2022-10-03T21:43:11.003Z,1.00
2022-10-03T21:45:53.054Z,1.08
2022-10-03T21:48:41.510Z,0.80
2022-10-03T21:51:26.325Z,1.20
2022-10-03T21:54:14.282Z,1.08
2022-10-03T21:57:10.099Z,1.35
2022-10-03T22:00:16.170Z,0.93
2022-10-03T22:02:51.892Z,1.23
2022-10-03T22:05:27.422Z,0.90
2022-10-03T22:07:53.970Z,1.02
2022-10-03T22:10:22.897Z,1.13
2022-10-03T22:12:56.617Z,1.00
2022-10-03T22:15:42.957Z,1.08
2022-10-03T22:18:12.377Z,1.23
2022-10-03T22:20:53.428Z,1.10
2022-10-03T22:23:38.810Z,1.30
2022-10-03T22:26:35.357Z,1.17
2022-10-03T22:29:12.004Z,0.95
2022-10-03T22:31:51.426Z,1.15
2022-10-03T22:34:32.820Z,0.80
2022-10-03T22:37:00.083Z,0.95
2022-10-03T22:39:28.328Z,1.10
2022-10-03T22:41:57.870Z,1.00
2022-10-03T22:44:27.967Z,1.20
2022-10-03T22:46:58.874Z,0.90
2022-10-03T22:49:58.859Z,1.20
2022-10-03T22:52:28.772Z,1.20
2022-10-03T22:54:56.813Z,1.17
2022-10-03T22:57:25.385Z,1.10
2022-10-03T22:59:54.983Z,1.10
2022-10-03T23:02:29.833Z,0.93
2022-10-03T23:05:04.532Z,0.95
2022-10-03T23:07:45.213Z,0.85
2022-10-03T23:10:27.523Z,1.10
2022-10-03T23:13:31.662Z,0.95
2022-10-03T23:16:15.898Z,0.73
2022-10-03T23:18:47.829Z,1.40
2022-10-03T23:21:14.405Z,1.48
2022-10-03T23:24:03.299Z,1.27
2022-10-03T23:27:01.974Z,1.35
2022-10-03T23:29:28.552Z,1.10
2022-10-03T23:32:04.486Z,0.90
2022-10-03T23:34:37.273Z,0.93
2022-10-03T23:37:16.378Z,0.82
2022-10-03T23:39:57.143Z,0.90
2022-10-03T23:42:42.234Z,1.13
2022-10-03T23:45:14.935Z,0.77
2022-10-03T23:47:46.536Z,1.00
2022-10-03T23:50:19.977Z,0.93
2022-10-03T23:52:50.799Z,0.77
2022-10-03T23:55:39.753Z,1.42
2022-10-03T23:58:22.249Z,0.77
